sensor_id;sensor_type;location;lat;lon;timestamp;P1;durP1;ratioP1;P2;durP2;ratioP2
21927;SDS011;11128;51.096;17.190;2023-03-01T00:02:16;69.75;;;28.73;;
21927;SDS011;11128;51.096;17.190;2023-03-01T00:07:17;73.00;;;30.02;;
21927;SDS011;11128;51.096;17.190;2023-03-01T00:12:18;77.63;;;30.05;;
21927;SDS011;11128;51.096;17.190;2023-03-01T00:17:19;76.47;;;28.52;;
21927;SDS011;11128;51.096;17.190;2023-03-01T00:22:21;79.85;;;31.33;;
21927;SDS011;11128;51.096;17.190;2023-03-01T00:27:22;78.85;;;30.20;;
21927;SDS011;11128;51.096;17.190;2023-03-01T00:32:23;83.90;;;31.50;;
21927;SDS011;11128;51.096;17.190;2023-03-01T00:37:25;81.30;;;30.17;;
21927;SDS011;11128;51.096;17.190;2023-03-01T00:42:26;73.38;;;29.10;;
21927;SDS011;11128;51.096;17.190;2023-03-01T00:47:28;77.43;;;29.00;;
21927;SDS011;11128;51.096;17.190;2023-03-01T00:52:30;74.40;;;29.73;;
21927;SDS011;11128;51.096;17.190;2023-03-01T00:57:31;73.97;;;30.17;;
21927;SDS011;11128;51.096;17.190;2023-03-01T01:02:34;77.45;;;31.42;;
21927;SDS011;11128;51.096;17.190;2023-03-01T01:07:35;92.53;;;33.38;;
21927;SDS011;11128;51.096;17.190;2023-03-01T01:12:37;86.97;;;31.40;;
21927;SDS011;11128;51.096;17.190;2023-03-01T01:17:38;89.95;;;32.85;;
21927;SDS011;11128;51.096;17.190;2023-03-01T01:22:39;80.05;;;30.33;;
21927;SDS011;11128;51.096;17.190;2023-03-01T01:27:41;76.85;;;29.40;;
21927;SDS011;11128;51.096;17.190;2023-03-01T01:32:42;85.38;;;32.08;;
21927;SDS011;11128;51.096;17.190;2023-03-01T01:37:43;82.45;;;31.17;;
21927;SDS011;11128;51.096;17.190;2023-03-01T01:42:44;82.85;;;31.20;;
21927;SDS011;11128;51.096;17.190;2023-03-01T01:47:46;79.75;;;30.70;;
21927;SDS011;11128;51.096;17.190;2023-03-01T01:52:49;80.47;;;30.80;;
21927;SDS011;11128;51.096;17.190;2023-03-01T01:57:52;86.20;;;31.35;;
21927;SDS011;11128;51.096;17.190;2023-03-01T02:02:57;76.93;;;31.00;;
21927;SDS011;11128;51.096;17.190;2023-03-01T02:08:03;79.68;;;31.17;;
21927;SDS011;11128;51.096;17.190;2023-03-01T02:13:04;89.28;;;32.58;;
21927;SDS011;11128;51.096;17.190;2023-03-01T02:18:06;83.30;;;31.70;;
21927;SDS011;11128;51.096;17.190;2023-03-01T02:23:09;75.60;;;29.73;;
21927;SDS011;11128;51.096;17.190;2023-03-01T02:33:16;92.75;;;32.35;;
21927;SDS011;11128;51.096;17.190;2023-03-01T02:38:17;73.70;;;29.70;;
21927;SDS011;11128;51.096;17.190;2023-03-01T02:43:19;85.20;;;32.47;;
21927;SDS011;11128;51.096;17.190;2023-03-01T02:48:24;79.82;;;31.33;;
21927;SDS011;11128;51.096;17.190;2023-03-01T02:53:39;84.75;;;30.38;;
21927;SDS011;11128;51.096;17.190;2023-03-01T02:58:45;77.50;;;29.60;;
21927;SDS011;11128;51.096;17.190;2023-03-01T03:03:48;83.82;;;32.92;;
21927;SDS011;11128;51.096;17.190;2023-03-01T03:08:50;82.85;;;31.85;;
21927;SDS011;11128;51.096;17.190;2023-03-01T03:13:51;84.70;;;31.83;;
21927;SDS011;11128;51.096;17.190;2023-03-01T03:18:53;94.32;;;32.78;;
21927;SDS011;11128;51.096;17.190;2023-03-01T03:23:54;85.38;;;32.13;;
21927;SDS011;11128;51.096;17.190;2023-03-01T03:28:56;77.32;;;30.85;;
21927;SDS011;11128;51.096;17.190;2023-03-01T03:33:57;87.95;;;31.73;;
21927;SDS011;11128;51.096;17.190;2023-03-01T03:38:59;83.18;;;32.85;;
21927;SDS011;11128;51.096;17.190;2023-03-01T03:44:00;86.95;;;30.88;;
21927;SDS011;11128;51.096;17.190;2023-03-01T03:49:02;89.95;;;33.00;;
21927;SDS011;11128;51.096;17.190;2023-03-01T03:54:03;94.32;;;32.95;;
21927;SDS011;11128;51.096;17.190;2023-03-01T03:59:04;89.13;;;33.17;;
21927;SDS011;11128;51.096;17.190;2023-03-01T04:04:06;86.65;;;34.05;;
21927;SDS011;11128;51.096;17.190;2023-03-01T04:09:08;91.07;;;33.30;;
21927;SDS011;11128;51.096;17.190;2023-03-01T04:14:09;83.93;;;33.00;;
21927;SDS011;11128;51.096;17.190;2023-03-01T04:19:11;85.90;;;34.40;;
21927;SDS011;11128;51.096;17.190;2023-03-01T04:24:12;94.07;;;33.08;;
21927;SDS011;11128;51.096;17.190;2023-03-01T04:29:13;88.82;;;34.42;;
21927;SDS011;11128;51.096;17.190;2023-03-01T04:34:14;96.88;;;34.22;;
21927;SDS011;11128;51.096;17.190;2023-03-01T04:39:16;84.47;;;32.17;;
21927;SDS011;11128;51.096;17.190;2023-03-01T04:44:17;90.57;;;33.85;;
21927;SDS011;11128;51.096;17.190;2023-03-01T04:49:20;93.20;;;33.13;;
21927;SDS011;11128;51.096;17.190;2023-03-01T04:54:21;94.28;;;33.75;;
21927;SDS011;11128;51.096;17.190;2023-03-01T04:59:22;95.82;;;32.47;;
21927;SDS011;11128;51.096;17.190;2023-03-01T05:04:24;93.35;;;31.67;;
21927;SDS011;11128;51.096;17.190;2023-03-01T05:09:25;85.13;;;31.42;;
21927;SDS011;11128;51.096;17.190;2023-03-01T05:14:26;97.68;;;35.63;;
21927;SDS011;11128;51.096;17.190;2023-03-01T05:19:29;87.38;;;32.20;;
21927;SDS011;11128;51.096;17.190;2023-03-01T05:24:34;81.40;;;33.47;;
21927;SDS011;11128;51.096;17.190;2023-03-01T05:29:36;91.82;;;34.55;;
21927;SDS011;11128;51.096;17.190;2023-03-01T05:34:39;104.38;;;36.22;;
21927;SDS011;11128;51.096;17.190;2023-03-01T05:39:41;92.88;;;35.70;;
21927;SDS011;11128;51.096;17.190;2023-03-01T05:44:42;90.40;;;33.25;;
21927;SDS011;11128;51.096;17.190;2023-03-01T05:49:43;101.32;;;36.13;;
21927;SDS011;11128;51.096;17.190;2023-03-01T05:54:45;91.35;;;36.10;;
21927;SDS011;11128;51.096;17.190;2023-03-01T05:59:47;86.78;;;35.00;;
21927;SDS011;11128;51.096;17.190;2023-03-01T06:04:48;101.35;;;38.15;;
21927;SDS011;11128;51.096;17.190;2023-03-01T06:09:50;103.03;;;39.10;;
21927;SDS011;11128;51.096;17.190;2023-03-01T06:14:51;105.43;;;40.00;;
21927;SDS011;11128;51.096;17.190;2023-03-01T06:19:52;103.90;;;37.28;;
21927;SDS011;11128;51.096;17.190;2023-03-01T06:24:54;105.53;;;41.50;;
21927;SDS011;11128;51.096;17.190;2023-03-01T06:29:55;107.75;;;41.38;;
21927;SDS011;11128;51.096;17.190;2023-03-01T06:34:57;108.18;;;40.70;;
21927;SDS011;11128;51.096;17.190;2023-03-01T06:39:59;114.43;;;42.95;;
21927;SDS011;11128;51.096;17.190;2023-03-01T06:45:01;117.00;;;42.15;;
21927;SDS011;11128;51.096;17.190;2023-03-01T06:50:03;112.35;;;39.42;;
21927;SDS011;11128;51.096;17.190;2023-03-01T06:55:04;110.55;;;39.78;;
21927;SDS011;11128;51.096;17.190;2023-03-01T07:00:07;92.07;;;38.03;;
21927;SDS011;11128;51.096;17.190;2023-03-01T07:05:09;98.75;;;36.67;;
21927;SDS011;11128;51.096;17.190;2023-03-01T07:10:11;93.13;;;37.08;;
21927;SDS011;11128;51.096;17.190;2023-03-01T07:15:12;104.57;;;41.47;;
21927;SDS011;11128;51.096;17.190;2023-03-01T07:20:15;123.40;;;53.40;;
21927;SDS011;11128;51.096;17.190;2023-03-01T07:25:18;116.30;;;50.20;;
21927;SDS011;11128;51.096;17.190;2023-03-01T07:30:20;103.50;;;39.30;;
21927;SDS011;11128;51.096;17.190;2023-03-01T07:35:22;91.13;;;35.97;;
21927;SDS011;11128;51.096;17.190;2023-03-01T07:40:25;75.70;;;31.70;;
21927;SDS011;11128;51.096;17.190;2023-03-01T07:45:27;69.82;;;28.35;;
21927;SDS011;11128;51.096;17.190;2023-03-01T07:50:28;65.80;;;29.05;;
21927;SDS011;11128;51.096;17.190;2023-03-01T07:55:30;65.68;;;29.55;;
21927;SDS011;11128;51.096;17.190;2023-03-01T08:00:31;67.55;;;31.80;;
21927;SDS011;11128;51.096;17.190;2023-03-01T08:05:33;66.20;;;28.45;;
21927;SDS011;11128;51.096;17.190;2023-03-01T08:10:35;71.55;;;30.80;;
21927;SDS011;11128;51.096;17.190;2023-03-01T08:15:37;74.10;;;33.20;;
21927;SDS011;11128;51.096;17.190;2023-03-01T08:20:38;76.60;;;33.72;;
21927;SDS011;11128;51.096;17.190;2023-03-01T08:25:39;72.78;;;32.03;;
21927;SDS011;11128;51.096;17.190;2023-03-01T08:30:41;59.05;;;27.88;;
21927;SDS011;11128;51.096;17.190;2023-03-01T08:35:43;63.33;;;26.58;;
21927;SDS011;11128;51.096;17.190;2023-03-01T08:40:45;59.17;;;26.27;;
21927;SDS011;11128;51.096;17.190;2023-03-01T08:45:48;52.28;;;23.63;;
21927;SDS011;11128;51.096;17.190;2023-03-01T08:50:50;54.83;;;22.98;;
21927;SDS011;11128;51.096;17.190;2023-03-01T08:55:51;47.53;;;22.70;;
21927;SDS011;11128;51.096;17.190;2023-03-01T09:00:53;41.75;;;20.15;;
21927;SDS011;11128;51.096;17.190;2023-03-01T09:05:54;35.38;;;18.33;;
21927;SDS011;11128;51.096;17.190;2023-03-01T09:11:02;33.97;;;15.93;;
21927;SDS011;11128;51.096;17.190;2023-03-01T09:16:05;24.10;;;13.35;;
21927;SDS011;11128;51.096;17.190;2023-03-01T09:21:12;25.85;;;13.65;;
21927;SDS011;11128;51.096;17.190;2023-03-01T09:26:17;30.98;;;15.55;;
21927;SDS011;11128;51.096;17.190;2023-03-01T09:31:20;31.63;;;16.35;;
21927;SDS011;11128;51.096;17.190;2023-03-01T09:36:23;30.05;;;14.18;;
21927;SDS011;11128;51.096;17.190;2023-03-01T09:46:37;25.75;;;13.43;;
21927;SDS011;11128;51.096;17.190;2023-03-01T09:51:48;28.25;;;13.65;;
21927;SDS011;11128;51.096;17.190;2023-03-01T09:56:59;31.05;;;15.40;;
21927;SDS011;11128;51.096;17.190;2023-03-01T10:12:47;24.23;;;12.48;;
21927;SDS011;11128;51.096;17.190;2023-03-01T10:18:03;23.85;;;12.60;;
21927;SDS011;11128;51.096;17.190;2023-03-01T10:23:10;26.25;;;13.50;;
21927;SDS011;11128;51.096;17.190;2023-03-01T10:28:34;28.77;;;14.40;;
21927;SDS011;11128;51.096;17.190;2023-03-01T10:33:56;20.70;;;12.57;;
21927;SDS011;11128;51.096;17.190;2023-03-01T10:38:59;22.65;;;12.55;;
21927;SDS011;11128;51.096;17.190;2023-03-01T10:44:11;23.85;;;13.25;;
21927;SDS011;11128;51.096;17.190;2023-03-01T10:49:35;26.55;;;13.02;;
21927;SDS011;11128;51.096;17.190;2023-03-01T10:54:37;25.55;;;13.93;;
21927;SDS011;11128;51.096;17.190;2023-03-01T10:59:41;28.48;;;14.25;;
21927;SDS011;11128;51.096;17.190;2023-03-01T11:04:55;23.98;;;12.60;;
21927;SDS011;11128;51.096;17.190;2023-03-01T11:09:59;22.60;;;12.15;;
21927;SDS011;11128;51.096;17.190;2023-03-01T11:15:00;18.70;;;10.95;;
21927;SDS011;11128;51.096;17.190;2023-03-01T11:25:13;21.73;;;12.00;;
21927;SDS011;11128;51.096;17.190;2023-03-01T11:30:18;20.17;;;11.18;;
21927;SDS011;11128;51.096;17.190;2023-03-01T11:35:27;19.40;;;11.77;;
21927;SDS011;11128;51.096;17.190;2023-03-01T11:40:41;25.70;;;13.85;;
21927;SDS011;11128;51.096;17.190;2023-03-01T11:46:12;22.80;;;12.75;;
21927;SDS011;11128;51.096;17.190;2023-03-01T12:07:34;24.35;;;13.70;;
21927;SDS011;11128;51.096;17.190;2023-03-01T12:18:33;17.30;;;10.85;;
21927;SDS011;11128;51.096;17.190;2023-03-01T12:45:00;14.45;;;8.55;;
21927;SDS011;11128;51.096;17.190;2023-03-01T12:50:23;13.73;;;8.00;;
21927;SDS011;11128;51.096;17.190;2023-03-01T12:55:40;13.90;;;8.25;;
21927;SDS011;11128;51.096;17.190;2023-03-01T13:01:00;17.08;;;8.90;;
21927;SDS011;11128;51.096;17.190;2023-03-01T13:11:20;12.73;;;7.90;;
21927;SDS011;11128;51.096;17.190;2023-03-01T13:21:30;14.10;;;7.97;;
21927;SDS011;11128;51.096;17.190;2023-03-01T13:26:32;14.60;;;8.35;;
21927;SDS011;11128;51.096;17.190;2023-03-01T13:32:27;18.70;;;9.75;;
21927;SDS011;11128;51.096;17.190;2023-03-01T13:37:34;17.33;;;9.90;;
21927;SDS011;11128;51.096;17.190;2023-03-01T13:42:39;13.82;;;9.18;;
21927;SDS011;11128;51.096;17.190;2023-03-01T13:47:44;15.63;;;9.20;;
21927;SDS011;11128;51.096;17.190;2023-03-01T13:58:05;18.45;;;10.40;;
21927;SDS011;11128;51.096;17.190;2023-03-01T14:03:21;16.90;;;10.10;;
21927;SDS011;11128;51.096;17.190;2023-03-01T14:08:24;19.85;;;10.77;;
21927;SDS011;11128;51.096;17.190;2023-03-01T14:13:33;16.73;;;10.18;;
21927;SDS011;11128;51.096;17.190;2023-03-01T14:23:53;15.63;;;9.73;;
21927;SDS011;11128;51.096;17.190;2023-03-01T14:28:54;17.85;;;10.48;;
21927;SDS011;11128;51.096;17.190;2023-03-01T14:33:56;18.33;;;10.57;;
21927;SDS011;11128;51.096;17.190;2023-03-01T14:38:58;17.10;;;10.10;;
21927;SDS011;11128;51.096;17.190;2023-03-01T14:44:06;41.80;;;22.05;;
21927;SDS011;11128;51.096;17.190;2023-03-01T14:59:27;19.10;;;10.77;;
21927;SDS011;11128;51.096;17.190;2023-03-01T15:04:29;18.02;;;10.02;;
21927;SDS011;11128;51.096;17.190;2023-03-01T15:09:32;14.88;;;9.63;;
21927;SDS011;11128;51.096;17.190;2023-03-01T15:14:41;17.60;;;10.68;;
21927;SDS011;11128;51.096;17.190;2023-03-01T15:19:45;14.45;;;9.70;;
21927;SDS011;11128;51.096;17.190;2023-03-01T15:24:47;15.15;;;10.07;;
21927;SDS011;11128;51.096;17.190;2023-03-01T15:29:50;17.27;;;10.93;;
21927;SDS011;11128;51.096;17.190;2023-03-01T15:34:56;18.10;;;10.43;;
21927;SDS011;11128;51.096;17.190;2023-03-01T15:40:00;23.40;;;11.43;;
21927;SDS011;11128;51.096;17.190;2023-03-01T15:55:28;21.65;;;12.50;;
21927;SDS011;11128;51.096;17.190;2023-03-01T16:00:33;23.63;;;13.45;;
21927;SDS011;11128;51.096;17.190;2023-03-01T16:05:35;22.23;;;13.02;;
21927;SDS011;11128;51.096;17.190;2023-03-01T16:10:36;28.05;;;14.27;;
21927;SDS011;11128;51.096;17.190;2023-03-01T16:15:39;148.60;;;47.80;;
21927;SDS011;11128;51.096;17.190;2023-03-01T16:20:40;219.73;;;71.53;;
21927;SDS011;11128;51.096;17.190;2023-03-01T16:25:42;212.40;;;68.72;;
21927;SDS011;11128;51.096;17.190;2023-03-01T16:30:45;200.82;;;65.22;;
21927;SDS011;11128;51.096;17.190;2023-03-01T16:35:49;232.20;;;72.60;;
21927;SDS011;11128;51.096;17.190;2023-03-01T16:40:50;131.57;;;44.75;;
21927;SDS011;11128;51.096;17.190;2023-03-01T16:45:52;99.32;;;35.05;;
21927;SDS011;11128;51.096;17.190;2023-03-01T16:51:00;77.45;;;32.90;;
21927;SDS011;11128;51.096;17.190;2023-03-01T16:56:02;68.88;;;25.63;;
21927;SDS011;11128;51.096;17.190;2023-03-01T17:01:13;98.65;;;35.50;;
21927;SDS011;11128;51.096;17.190;2023-03-01T17:06:18;107.88;;;38.78;;
21927;SDS011;11128;51.096;17.190;2023-03-01T17:11:21;93.10;;;35.83;;
21927;SDS011;11128;51.096;17.190;2023-03-01T17:16:22;93.45;;;34.40;;
21927;SDS011;11128;51.096;17.190;2023-03-01T17:21:24;97.10;;;34.67;;
21927;SDS011;11128;51.096;17.190;2023-03-01T17:26:25;86.45;;;33.15;;
21927;SDS011;11128;51.096;17.190;2023-03-01T17:31:28;85.35;;;32.72;;
21927;SDS011;11128;51.096;17.190;2023-03-01T17:36:30;73.90;;;30.13;;
21927;SDS011;11128;51.096;17.190;2023-03-01T17:41:34;80.05;;;28.40;;
21927;SDS011;11128;51.096;17.190;2023-03-01T17:46:35;61.53;;;25.48;;
21927;SDS011;11128;51.096;17.190;2023-03-01T17:51:37;62.90;;;23.13;;
21927;SDS011;11128;51.096;17.190;2023-03-01T17:56:38;54.60;;;21.52;;
21927;SDS011;11128;51.096;17.190;2023-03-01T18:01:42;46.65;;;20.67;;
21927;SDS011;11128;51.096;17.190;2023-03-01T18:06:43;51.33;;;21.17;;
21927;SDS011;11128;51.096;17.190;2023-03-01T18:11:44;49.95;;;19.63;;
21927;SDS011;11128;51.096;17.190;2023-03-01T18:16:46;42.55;;;18.50;;
21927;SDS011;11128;51.096;17.190;2023-03-01T18:21:47;40.33;;;18.20;;
21927;SDS011;11128;51.096;17.190;2023-03-01T18:26:48;44.38;;;18.15;;
21927;SDS011;11128;51.096;17.190;2023-03-01T18:31:50;42.90;;;18.08;;
21927;SDS011;11128;51.096;17.190;2023-03-01T18:36:52;43.03;;;16.35;;
21927;SDS011;11128;51.096;17.190;2023-03-01T18:41:55;44.30;;;16.33;;
21927;SDS011;11128;51.096;17.190;2023-03-01T18:46:57;61.30;;;20.08;;
21927;SDS011;11128;51.096;17.190;2023-03-01T18:51:58;55.03;;;19.17;;
21927;SDS011;11128;51.096;17.190;2023-03-01T18:56:59;54.17;;;19.25;;
21927;SDS011;11128;51.096;17.190;2023-03-01T19:02:00;56.50;;;20.52;;
21927;SDS011;11128;51.096;17.190;2023-03-01T19:07:02;53.88;;;21.13;;
21927;SDS011;11128;51.096;17.190;2023-03-01T19:12:03;53.53;;;21.20;;
21927;SDS011;11128;51.096;17.190;2023-03-01T19:17:05;61.38;;;22.13;;
21927;SDS011;11128;51.096;17.190;2023-03-01T19:22:07;54.08;;;22.40;;
21927;SDS011;11128;51.096;17.190;2023-03-01T19:27:08;66.55;;;23.90;;
21927;SDS011;11128;51.096;17.190;2023-03-01T19:32:10;58.13;;;24.95;;
21927;SDS011;11128;51.096;17.190;2023-03-01T19:37:11;55.65;;;23.38;;
21927;SDS011;11128;51.096;17.190;2023-03-01T19:42:12;68.15;;;26.98;;
21927;SDS011;11128;51.096;17.190;2023-03-01T19:47:14;74.85;;;27.77;;
21927;SDS011;11128;51.096;17.190;2023-03-01T19:52:15;94.95;;;35.70;;
21927;SDS011;11128;51.096;17.190;2023-03-01T19:57:16;123.57;;;45.60;;
21927;SDS011;11128;51.096;17.190;2023-03-01T20:02:17;150.15;;;55.10;;
21927;SDS011;11128;51.096;17.190;2023-03-01T20:07:18;161.73;;;56.03;;
21927;SDS011;11128;51.096;17.190;2023-03-01T20:12:20;152.95;;;56.38;;
21927;SDS011;11128;51.096;17.190;2023-03-01T20:17:21;159.48;;;55.47;;
21927;SDS011;11128;51.096;17.190;2023-03-01T20:22:22;165.88;;;58.78;;
21927;SDS011;11128;51.096;17.190;2023-03-01T20:27:24;152.10;;;56.25;;
21927;SDS011;11128;51.096;17.190;2023-03-01T20:32:25;133.82;;;49.05;;
21927;SDS011;11128;51.096;17.190;2023-03-01T20:37:26;125.88;;;46.20;;
21927;SDS011;11128;51.096;17.190;2023-03-01T20:42:27;109.95;;;40.13;;
21927;SDS011;11128;51.096;17.190;2023-03-01T20:47:29;94.97;;;36.88;;
21927;SDS011;11128;51.096;17.190;2023-03-01T20:52:30;98.85;;;35.60;;
21927;SDS011;11128;51.096;17.190;2023-03-01T20:57:31;98.93;;;36.53;;
21927;SDS011;11128;51.096;17.190;2023-03-01T21:02:32;114.05;;;42.10;;
21927;SDS011;11128;51.096;17.190;2023-03-01T21:07:34;145.25;;;52.67;;
21927;SDS011;11128;51.096;17.190;2023-03-01T21:12:35;147.20;;;54.70;;
21927;SDS011;11128;51.096;17.190;2023-03-01T21:17:36;147.68;;;56.67;;
21927;SDS011;11128;51.096;17.190;2023-03-01T21:22:37;147.50;;;57.28;;
21927;SDS011;11128;51.096;17.190;2023-03-01T21:27:39;166.18;;;57.50;;
21927;SDS011;11128;51.096;17.190;2023-03-01T21:32:40;134.52;;;52.50;;
21927;SDS011;11128;51.096;17.190;2023-03-01T21:37:41;137.70;;;50.17;;
21927;SDS011;11128;51.096;17.190;2023-03-01T21:42:42;125.38;;;49.47;;
21927;SDS011;11128;51.096;17.190;2023-03-01T21:47:44;126.70;;;49.65;;
21927;SDS011;11128;51.096;17.190;2023-03-01T21:52:45;124.93;;;47.70;;
21927;SDS011;11128;51.096;17.190;2023-03-01T21:57:46;128.43;;;48.95;;
21927;SDS011;11128;51.096;17.190;2023-03-01T22:02:48;127.10;;;48.25;;
21927;SDS011;11128;51.096;17.190;2023-03-01T22:07:49;131.68;;;52.55;;
21927;SDS011;11128;51.096;17.190;2023-03-01T22:12:51;132.50;;;47.58;;
21927;SDS011;11128;51.096;17.190;2023-03-01T22:17:56;158.88;;;60.17;;
21927;SDS011;11128;51.096;17.190;2023-03-01T22:22:57;146.07;;;56.83;;
21927;SDS011;11128;51.096;17.190;2023-03-01T22:27:58;142.40;;;55.65;;
21927;SDS011;11128;51.096;17.190;2023-03-01T22:33:00;140.98;;;57.35;;
21927;SDS011;11128;51.096;17.190;2023-03-01T22:38:01;159.02;;;61.42;;
21927;SDS011;11128;51.096;17.190;2023-03-01T22:43:02;151.38;;;60.17;;
21927;SDS011;11128;51.096;17.190;2023-03-01T22:48:04;165.63;;;59.95;;
21927;SDS011;11128;51.096;17.190;2023-03-01T22:53:05;148.40;;;58.95;;
21927;SDS011;11128;51.096;17.190;2023-03-01T22:58:06;145.50;;;60.30;;
21927;SDS011;11128;51.096;17.190;2023-03-01T23:03:08;163.38;;;64.55;;
21927;SDS011;11128;51.096;17.190;2023-03-01T23:08:09;169.23;;;66.88;;
21927;SDS011;11128;51.096;17.190;2023-03-01T23:13:11;178.32;;;67.25;;
21927;SDS011;11128;51.096;17.190;2023-03-01T23:18:12;166.35;;;63.63;;
21927;SDS011;11128;51.096;17.190;2023-03-01T23:23:13;175.32;;;65.50;;
21927;SDS011;11128;51.096;17.190;2023-03-01T23:28:15;176.05;;;68.35;;
21927;SDS011;11128;51.096;17.190;2023-03-01T23:33:16;188.23;;;68.38;;
21927;SDS011;11128;51.096;17.190;2023-03-01T23:38:17;191.13;;;69.47;;
21927;SDS011;11128;51.096;17.190;2023-03-01T23:43:20;189.57;;;69.85;;
21927;SDS011;11128;51.096;17.190;2023-03-01T23:48:21;199.02;;;68.90;;
21927;SDS011;11128;51.096;17.190;2023-03-01T23:53:22;202.40;;;74.30;;
21927;SDS011;11128;51.096;17.190;2023-03-01T23:58:24;192.77;;;70.63;;
